sensor_id;sensor_type;location;lat;lon;timestamp;pressure;altitude;pressure_sealevel;temperature;humidity
29569;BME280;16501;51.462;14.346;2024-03-23T00:55:35;99343.34;;;9.63;100.00
29569;BME280;16501;51.462;14.346;2024-03-23T00:58:00;99351.66;;;9.78;100.00
29569;BME280;16501;51.462;14.346;2024-03-23T01:00:26;99338.56;;;9.70;100.00
29569;BME280;16501;51.462;14.346;2024-03-23T01:02:51;99323.66;;;9.58;100.00
29569;BME280;16501;51.462;14.346;2024-03-23T01:05:16;99321.69;;;9.64;100.00
29569;BME280;16501;51.462;14.346;2024-03-23T01:07:41;99345.72;;;9.71;100.00
29569;BME280;16501;51.462;14.346;2024-03-23T01:10:07;99360.53;;;9.77;100.00
29569;BME280;16501;51.462;14.346;2024-03-23T01:12:32;99360.25;;;9.75;100.00
29569;BME280;16501;51.462;14.346;2024-03-23T01:15:00;99347.38;;;9.62;100.00
29569;BME280;16501;51.462;14.346;2024-03-23T01:17:25;99360.03;;;9.78;100.00
29569;BME280;16501;51.462;14.346;2024-03-23T01:19:50;99335.00;;;9.69;100.00
29569;BME280;16501;51.462;14.346;2024-03-23T01:22:15;99353.69;;;9.78;100.00
29569;BME280;16501;51.462;14.346;2024-03-23T01:24:41;99346.84;;;9.79;100.00
29569;BME280;16501;51.462;14.346;2024-03-23T01:27:06;99342.47;;;9.78;100.00
29569;BME280;16501;51.462;14.346;2024-03-23T01:29:31;99329.41;;;9.69;100.00
29569;BME280;16501;51.462;14.346;2024-03-23T01:31:56;99340.94;;;9.77;100.00
29569;BME280;16501;51.462;14.346;2024-03-23T01:34:22;99349.63;;;9.79;100.00
29569;BME280;16501;51.462;14.346;2024-03-23T01:36:47;99345.50;;;9.74;100.00
29569;BME280;16501;51.462;14.346;2024-03-23T01:39:13;99343.47;;;9.75;100.00
29569;BME280;16501;51.462;14.346;2024-03-23T01:41:41;99350.41;;;9.79;100.00
29569;BME280;16501;51.462;14.346;2024-03-23T01:44:08;99350.13;;;9.77;100.00
29569;BME280;16501;51.462;14.346;2024-03-23T01:46:34;99342.41;;;9.72;100.00
29569;BME280;16501;51.462;14.346;2024-03-23T01:49:00;99327.34;;;9.70;100.00
29569;BME280;16501;51.462;14.346;2024-03-23T01:51:27;99330.66;;;9.89;100.00
29569;BME280;16501;51.462;14.346;2024-03-23T01:53:52;99315.63;;;9.86;100.00
29569;BME280;16501;51.462;14.346;2024-03-23T01:56:19;99312.44;;;9.99;100.00
29569;BME280;16501;51.462;14.346;2024-03-23T01:58:44;99297.53;;;9.87;100.00
29569;BME280;16501;51.462;14.346;2024-03-23T02:01:10;99277.41;;;9.83;100.00
29569;BME280;16501;51.462;14.346;2024-03-23T02:03:35;99318.88;;;10.05;100.00
29569;BME280;16501;51.462;14.346;2024-03-23T02:06:01;99315.59;;;10.07;100.00
29569;BME280;16501;51.462;14.346;2024-03-23T02:08:26;99312.78;;;10.07;100.00
29569;BME280;16501;51.462;14.346;2024-03-23T02:10:51;99308.16;;;10.04;100.00
29569;BME280;16501;51.462;14.346;2024-03-23T02:13:18;99295.63;;;9.99;100.00
29569;BME280;16501;51.462;14.346;2024-03-23T02:15:43;99270.75;;;9.80;100.00
29569;BME280;16501;51.462;14.346;2024-03-23T02:18:09;99277.22;;;9.92;100.00
29569;BME280;16501;51.462;14.346;2024-03-23T02:20:36;99268.28;;;9.88;100.00
29569;BME280;16501;51.462;14.346;2024-03-23T02:23:01;99270.09;;;9.91;100.00
29569;BME280;16501;51.462;14.346;2024-03-23T02:25:26;99250.88;;;9.78;100.00
29569;BME280;16501;51.462;14.346;2024-03-23T02:27:52;99257.09;;;9.88;100.00
29569;BME280;16501;51.462;14.346;2024-03-23T02:30:19;99249.72;;;9.91;100.00
29569;BME280;16501;51.462;14.346;2024-03-23T02:32:45;99241.47;;;9.81;100.00
29569;BME280;16501;51.462;14.346;2024-03-23T02:35:10;99224.38;;;9.74;100.00
29569;BME280;16501;51.462;14.346;2024-03-23T02:37:35;99244.28;;;9.81;100.00
29569;BME280;16501;51.462;14.346;2024-03-23T02:40:00;99226.38;;;9.73;100.00
29569;BME280;16501;51.462;14.346;2024-03-23T02:42:26;99248.06;;;9.78;100.00
29569;BME280;16501;51.462;14.346;2024-03-23T02:44:51;99257.84;;;9.89;100.00
29569;BME280;16501;51.462;14.346;2024-03-23T02:47:16;99271.31;;;9.85;100.00
29569;BME280;16501;51.462;14.346;2024-03-23T02:49:41;99255.53;;;9.87;100.00
29569;BME280;16501;51.462;14.346;2024-03-23T02:52:07;99244.78;;;9.80;100.00
29569;BME280;16501;51.462;14.346;2024-03-23T02:54:32;99230.25;;;9.76;100.00
29569;BME280;16501;51.462;14.346;2024-03-23T02:56:57;99235.66;;;9.85;100.00
29569;BME280;16501;51.462;14.346;2024-03-23T02:59:22;99244.13;;;9.91;100.00
29569;BME280;16501;51.462;14.346;2024-03-23T03:01:48;99195.81;;;9.70;100.00
29569;BME280;16501;51.462;14.346;2024-03-23T03:04:13;99216.06;;;9.85;100.00
29569;BME280;16501;51.462;14.346;2024-03-23T03:06:38;99223.97;;;9.87;100.00
29569;BME280;16501;51.462;14.346;2024-03-23T03:09:03;99238.16;;;9.57;100.00
29569;BME280;16501;51.462;14.346;2024-03-23T03:11:29;99233.75;;;9.50;100.00
29569;BME280;16501;51.462;14.346;2024-03-23T03:13:54;99248.09;;;9.58;100.00
29569;BME280;16501;51.462;14.346;2024-03-23T03:16:20;99232.28;;;9.55;100.00
29569;BME280;16501;51.462;14.346;2024-03-23T03:18:45;99243.53;;;9.60;100.00
29569;BME280;16501;51.462;14.346;2024-03-23T03:21:12;99235.31;;;9.51;100.00
29569;BME280;16501;51.462;14.346;2024-03-23T03:23:38;99203.00;;;9.30;100.00
29569;BME280;16501;51.462;14.346;2024-03-23T03:26:04;99219.91;;;9.41;100.00
29569;BME280;16501;51.462;14.346;2024-03-23T03:28:30;99205.78;;;9.30;100.00
29569;BME280;16501;51.462;14.346;2024-03-23T03:30:56;99226.34;;;9.47;100.00
29569;BME280;16501;51.462;14.346;2024-03-23T03:33:21;99220.75;;;9.47;100.00
29569;BME280;16501;51.462;14.346;2024-03-23T03:35:47;99220.03;;;9.52;100.00
29569;BME280;16501;51.462;14.346;2024-03-23T03:38:12;99199.16;;;9.48;100.00
29569;BME280;16501;51.462;14.346;2024-03-23T03:40:37;99214.59;;;9.63;100.00
29569;BME280;16501;51.462;14.346;2024-03-23T03:43:03;99175.22;;;9.47;100.00
29569;BME280;16501;51.462;14.346;2024-03-23T03:45:28;99196.03;;;9.66;100.00
29569;BME280;16501;51.462;14.346;2024-03-23T03:47:53;99193.50;;;9.68;100.00
29569;BME280;16501;51.462;14.346;2024-03-23T03:50:19;99192.94;;;9.64;100.00
29569;BME280;16501;51.462;14.346;2024-03-23T03:52:44;99207.00;;;9.70;100.00
29569;BME280;16501;51.462;14.346;2024-03-23T03:55:12;99193.50;;;9.68;100.00
29569;BME280;16501;51.462;14.346;2024-03-23T03:57:38;99184.06;;;9.66;100.00
29569;BME280;16501;51.462;14.346;2024-03-23T04:00:04;99161.66;;;9.39;100.00
29569;BME280;16501;51.462;14.346;2024-03-23T04:02:29;99173.34;;;9.17;100.00
29569;BME280;16501;51.462;14.346;2024-03-23T04:04:54;99182.84;;;9.25;100.00
29569;BME280;16501;51.462;14.346;2024-03-23T04:07:20;99192.81;;;9.27;100.00
29569;BME280;16501;51.462;14.346;2024-03-23T04:09:47;99181.31;;;9.24;100.00
29569;BME280;16501;51.462;14.346;2024-03-23T04:12:13;99174.34;;;8.94;100.00
29569;BME280;16501;51.462;14.346;2024-03-23T04:14:38;99172.53;;;9.11;100.00
29569;BME280;16501;51.462;14.346;2024-03-23T04:17:03;99161.41;;;9.17;100.00
29569;BME280;16501;51.462;14.346;2024-03-23T04:19:28;99172.50;;;9.32;100.00
29569;BME280;16501;51.462;14.346;2024-03-23T04:21:54;99159.22;;;9.27;100.00
29569;BME280;16501;51.462;14.346;2024-03-23T04:24:19;99157.25;;;9.33;100.00
29569;BME280;16501;51.462;14.346;2024-03-23T04:26:46;99138.16;;;9.31;100.00
29569;BME280;16501;51.462;14.346;2024-03-23T04:29:11;99150.25;;;9.43;100.00
29569;BME280;16501;51.462;14.346;2024-03-23T04:31:37;99137.66;;;9.33;100.00
29569;BME280;16501;51.462;14.346;2024-03-23T04:34:03;99150.41;;;9.34;100.00
29569;BME280;16501;51.462;14.346;2024-03-23T04:36:28;99145.91;;;9.42;100.00
29569;BME280;16501;51.462;14.346;2024-03-23T04:38:53;99126.03;;;9.40;100.00
29569;BME280;16501;51.462;14.346;2024-03-23T04:41:19;99140.94;;;9.52;100.00
29569;BME280;16501;51.462;14.346;2024-03-23T04:43:44;99123.25;;;9.40;100.00
29569;BME280;16501;51.462;14.346;2024-03-23T04:46:09;99114.59;;;9.38;100.00
29569;BME280;16501;51.462;14.346;2024-03-23T04:48:35;99143.22;;;9.53;100.00
29569;BME280;16501;51.462;14.346;2024-03-23T04:51:01;99132.31;;;9.55;100.00
29569;BME280;16501;51.462;14.346;2024-03-23T04:53:26;99127.44;;;9.50;100.00
29569;BME280;16501;51.462;14.346;2024-03-23T04:55:57;99126.94;;;9.52;100.00
29569;BME280;16501;51.462;14.346;2024-03-23T04:58:24;99130.28;;;9.56;100.00
29569;BME280;16501;51.462;14.346;2024-03-23T05:00:57;99120.84;;;9.53;100.00
29569;BME280;16501;51.462;14.346;2024-03-23T05:03:22;99131.78;;;9.51;100.00
29569;BME280;16501;51.462;14.346;2024-03-23T05:05:49;99111.63;;;9.47;100.00
29569;BME280;16501;51.462;14.346;2024-03-23T05:08:15;99122.00;;;9.41;100.00
29569;BME280;16501;51.462;14.346;2024-03-23T05:10:43;99119.28;;;9.26;100.00
29569;BME280;16501;51.462;14.346;2024-03-23T05:13:09;99103.75;;;8.99;100.00
29569;BME280;16501;51.462;14.346;2024-03-23T05:15:34;99103.88;;;8.90;100.00
29569;BME280;16501;51.462;14.346;2024-03-23T05:18:00;99085.91;;;8.96;100.00
29569;BME280;16501;51.462;14.346;2024-03-23T05:20:25;99088.53;;;9.05;100.00
29569;BME280;16501;51.462;14.346;2024-03-23T05:22:50;99090.25;;;8.97;100.00
29569;BME280;16501;51.462;14.346;2024-03-23T05:25:16;99064.03;;;8.74;100.00
29569;BME280;16501;51.462;14.346;2024-03-23T05:27:41;99049.25;;;8.89;100.00
29569;BME280;16501;51.462;14.346;2024-03-23T05:30:07;99061.19;;;8.89;100.00
29569;BME280;16501;51.462;14.346;2024-03-23T05:32:34;99056.34;;;8.90;100.00
29569;BME280;16501;51.462;14.346;2024-03-23T05:34:59;99043.66;;;8.89;100.00
29569;BME280;16501;51.462;14.346;2024-03-23T05:37:24;99047.28;;;8.74;100.00
29569;BME280;16501;51.462;14.346;2024-03-23T05:39:49;99045.44;;;8.92;100.00
29569;BME280;16501;51.462;14.346;2024-03-23T05:42:17;99034.84;;;8.75;100.00
29569;BME280;16501;51.462;14.346;2024-03-23T05:44:46;99041.88;;;8.91;100.00
29569;BME280;16501;51.462;14.346;2024-03-23T05:47:12;99017.81;;;8.73;100.00
29569;BME280;16501;51.462;14.346;2024-03-23T05:49:42;98996.78;;;8.78;100.00
29569;BME280;16501;51.462;14.346;2024-03-23T05:52:08;98977.50;;;8.80;100.00
29569;BME280;16501;51.462;14.346;2024-03-23T05:54:33;98971.66;;;8.57;100.00
29569;BME280;16501;51.462;14.346;2024-03-23T05:56:59;98983.91;;;8.65;100.00
29569;BME280;16501;51.462;14.346;2024-03-23T05:59:24;98983.72;;;8.69;100.00
29569;BME280;16501;51.462;14.346;2024-03-23T06:01:49;98959.56;;;8.45;100.00
29569;BME280;16501;51.462;14.346;2024-03-23T06:04:15;98982.59;;;8.81;100.00
29569;BME280;16501;51.462;14.346;2024-03-23T06:06:40;98991.03;;;8.87;100.00
29569;BME280;16501;51.462;14.346;2024-03-23T06:09:05;98961.56;;;8.92;100.00
29569;BME280;16501;51.462;14.346;2024-03-23T06:11:31;98953.13;;;8.86;100.00
29569;BME280;16501;51.462;14.346;2024-03-23T06:13:56;98958.41;;;8.78;100.00
29569;BME280;16501;51.462;14.346;2024-03-23T06:16:21;98964.06;;;8.84;100.00
29569;BME280;16501;51.462;14.346;2024-03-23T06:18:50;98964.53;;;8.82;100.00
29569;BME280;16501;51.462;14.346;2024-03-23T06:21:16;98960.38;;;8.52;100.00
29569;BME280;16501;51.462;14.346;2024-03-23T06:23:42;98946.63;;;8.48;100.00
29569;BME280;16501;51.462;14.346;2024-03-23T06:26:07;98946.09;;;8.44;100.00
29569;BME280;16501;51.462;14.346;2024-03-23T06:28:32;98948.47;;;8.51;100.00
29569;BME280;16501;51.462;14.346;2024-03-23T06:30:58;98943.63;;;8.52;100.00
29569;BME280;16501;51.462;14.346;2024-03-23T06:33:23;98940.56;;;8.49;100.00
29569;BME280;16501;51.462;14.346;2024-03-23T06:35:51;98926.16;;;8.57;100.00
29569;BME280;16501;51.462;14.346;2024-03-23T06:38:17;98886.25;;;8.51;100.00
29569;BME280;16501;51.462;14.346;2024-03-23T06:40:43;98921.03;;;8.76;100.00
29569;BME280;16501;51.462;14.346;2024-03-23T06:43:12;98919.28;;;8.78;100.00
29569;BME280;16501;51.462;14.346;2024-03-23T06:45:37;98887.22;;;8.47;100.00
29569;BME280;16501;51.462;14.346;2024-03-23T06:48:03;98863.06;;;8.44;100.00
29569;BME280;16501;51.462;14.346;2024-03-23T06:50:28;98872.06;;;8.54;100.00
29569;BME280;16501;51.462;14.346;2024-03-23T06:52:53;98891.66;;;8.60;100.00
29569;BME280;16501;51.462;14.346;2024-03-23T06:55:19;98872.09;;;8.60;100.00
29569;BME280;16501;51.462;14.346;2024-03-23T06:57:46;98861.03;;;8.71;100.00
29569;BME280;16501;51.462;14.346;2024-03-23T07:00:12;98861.56;;;8.75;100.00
29569;BME280;16501;51.462;14.346;2024-03-23T07:02:38;98867.69;;;8.79;100.00
29569;BME280;16501;51.462;14.346;2024-03-23T07:05:04;98876.66;;;8.83;100.00
29569;BME280;16501;51.462;14.346;2024-03-23T07:07:29;98879.22;;;8.87;100.00
29569;BME280;16501;51.462;14.346;2024-03-23T07:09:55;98874.44;;;8.67;100.00
29569;BME280;16501;51.462;14.346;2024-03-23T07:12:20;98869.75;;;8.53;100.00
29569;BME280;16501;51.462;14.346;2024-03-23T07:14:46;98877.59;;;8.75;100.00
29569;BME280;16501;51.462;14.346;2024-03-23T07:17:11;98855.50;;;8.51;100.00
29569;BME280;16501;51.462;14.346;2024-03-23T07:19:36;98847.94;;;8.57;100.00
29569;BME280;16501;51.462;14.346;2024-03-23T07:22:01;98836.72;;;8.51;100.00
29569;BME280;16501;51.462;14.346;2024-03-23T07:24:27;98843.34;;;8.54;100.00
29569;BME280;16501;51.462;14.346;2024-03-23T07:26:52;98822.88;;;8.62;100.00
29569;BME280;16501;51.462;14.346;2024-03-23T07:29:19;98819.19;;;8.51;100.00
29569;BME280;16501;51.462;14.346;2024-03-23T07:31:44;98816.84;;;8.43;100.00
29569;BME280;16501;51.462;14.346;2024-03-23T07:34:09;98824.56;;;8.54;100.00
29569;BME280;16501;51.462;14.346;2024-03-23T07:36:35;98835.56;;;8.63;100.00
29569;BME280;16501;51.462;14.346;2024-03-23T07:39:00;98853.19;;;8.75;100.00
29569;BME280;16501;51.462;14.346;2024-03-23T07:41:25;98851.81;;;8.65;100.00
29569;BME280;16501;51.462;14.346;2024-03-23T07:43:53;98864.00;;;8.62;100.00
29569;BME280;16501;51.462;14.346;2024-03-23T07:46:18;98867.88;;;8.70;100.00
29569;BME280;16501;51.462;14.346;2024-03-23T07:48:44;98857.63;;;8.61;100.00
29569;BME280;16501;51.462;14.346;2024-03-23T07:51:22;98862.56;;;8.72;100.00
29569;BME280;16501;51.462;14.346;2024-03-23T07:53:48;98860.91;;;8.86;100.00
29569;BME280;16501;51.462;14.346;2024-03-23T07:56:17;98847.06;;;8.71;100.00
29569;BME280;16501;51.462;14.346;2024-03-23T07:58:44;98838.69;;;8.71;100.00
29569;BME280;16501;51.462;14.346;2024-03-23T08:01:11;98826.41;;;8.63;100.00
29569;BME280;16501;51.462;14.346;2024-03-23T08:03:37;98830.78;;;8.70;100.00
29569;BME280;16501;51.462;14.346;2024-03-23T08:06:10;98816.81;;;8.70;100.00
29569;BME280;16501;51.462;14.346;2024-03-23T08:08:35;98818.13;;;8.74;100.00
29569;BME280;16501;51.462;14.346;2024-03-23T08:11:01;98804.13;;;8.74;100.00
29569;BME280;16501;51.462;14.346;2024-03-23T08:13:27;98792.44;;;8.70;100.00
29569;BME280;16501;51.462;14.346;2024-03-23T08:15:56;98790.16;;;8.74;100.00
29569;BME280;16501;51.462;14.346;2024-03-23T08:18:22;98728.38;;;8.35;100.00
29569;BME280;16501;51.462;14.346;2024-03-23T08:20:55;98737.28;;;8.65;100.00
29569;BME280;16501;51.462;14.346;2024-03-23T08:23:20;98698.13;;;8.59;100.00
29569;BME280;16501;51.462;14.346;2024-03-23T08:25:46;98706.19;;;8.52;100.00
29569;BME280;16501;51.462;14.346;2024-03-23T08:28:11;98675.84;;;8.39;100.00
29569;BME280;16501;51.462;14.346;2024-03-23T08:30:36;98711.13;;;8.68;100.00
29569;BME280;16501;51.462;14.346;2024-03-23T08:33:02;98694.16;;;8.40;100.00
29569;BME280;16501;51.462;14.346;2024-03-23T08:35:27;98697.22;;;8.42;100.00
29569;BME280;16501;51.462;14.346;2024-03-23T08:37:52;98685.50;;;8.38;100.00
29569;BME280;16501;51.462;14.346;2024-03-23T08:40:18;98707.69;;;8.47;100.00
29569;BME280;16501;51.462;14.346;2024-03-23T08:42:43;98671.81;;;8.40;100.00
29569;BME280;16501;51.462;14.346;2024-03-23T08:45:08;98685.19;;;8.62;100.00
29569;BME280;16501;51.462;14.346;2024-03-23T08:47:34;98684.50;;;8.73;100.00
29569;BME280;16501;51.462;14.346;2024-03-23T08:50:00;98651.47;;;8.71;100.00
29569;BME280;16501;51.462;14.346;2024-03-23T08:52:26;98633.00;;;8.85;100.00
29569;BME280;16501;51.462;14.346;2024-03-23T08:54:53;98643.13;;;8.82;100.00
29569;BME280;16501;51.462;14.346;2024-03-23T08:57:18;98628.38;;;8.76;100.00
29569;BME280;16501;51.462;14.346;2024-03-23T08:59:45;98607.53;;;8.77;100.00
29569;BME280;16501;51.462;14.346;2024-03-23T09:02:10;98634.09;;;9.10;100.00
29569;BME280;16501;51.462;14.346;2024-03-23T09:04:35;98621.66;;;9.11;100.00
29569;BME280;16501;51.462;14.346;2024-03-23T09:07:01;98634.16;;;9.21;100.00
29569;BME280;16501;51.462;14.346;2024-03-23T09:09:26;98638.97;;;9.15;100.00
29569;BME280;16501;51.462;14.346;2024-03-23T09:11:51;98639.19;;;9.12;100.00
29569;BME280;16501;51.462;14.346;2024-03-23T09:14:16;98629.25;;;9.05;100.00
29569;BME280;16501;51.462;14.346;2024-03-23T09:16:42;98637.47;;;9.25;100.00
29569;BME280;16501;51.462;14.346;2024-03-23T09:19:07;98634.66;;;9.20;100.00
29569;BME280;16501;51.462;14.346;2024-03-23T09:21:32;98654.25;;;9.25;100.00
29569;BME280;16501;51.462;14.346;2024-03-23T09:23:58;98638.44;;;9.11;100.00
29569;BME280;16501;51.462;14.346;2024-03-23T09:26:23;98629.06;;;9.20;100.00
29569;BME280;16501;51.462;14.346;2024-03-23T09:28:51;98623.72;;;9.22;100.00
29569;BME280;16501;51.462;14.346;2024-03-23T09:31:16;98642.38;;;9.48;100.00
29569;BME280;16501;51.462;14.346;2024-03-23T09:33:42;98637.50;;;9.37;100.00
29569;BME280;16501;51.462;14.346;2024-03-23T09:36:07;98631.38;;;9.33;100.00
29569;BME280;16501;51.462;14.346;2024-03-23T09:38:33;98634.72;;;9.42;100.00
29569;BME280;16501;51.462;14.346;2024-03-23T09:40:59;98640.28;;;9.37;100.00
29569;BME280;16501;51.462;14.346;2024-03-23T09:43:25;98633.69;;;9.34;100.00
29569;BME280;16501;51.462;14.346;2024-03-23T09:45:51;98628.59;;;9.33;100.00
29569;BME280;16501;51.462;14.346;2024-03-23T09:48:16;98626.03;;;9.29;100.00
29569;BME280;16501;51.462;14.346;2024-03-23T09:50:45;98630.63;;;9.32;100.00
29569;BME280;16501;51.462;14.346;2024-03-23T09:53:12;98630.13;;;9.34;100.00
29569;BME280;16501;51.462;14.346;2024-03-23T09:55:38;98625.53;;;9.36;100.00
29569;BME280;16501;51.462;14.346;2024-03-23T09:58:04;98627.59;;;9.41;100.00
29569;BME280;16501;51.462;14.346;2024-03-23T10:00:30;98618.69;;;9.37;100.00
29569;BME280;16501;51.462;14.346;2024-03-23T10:02:56;98621.75;;;9.45;100.00
29569;BME280;16501;51.462;14.346;2024-03-23T10:05:23;98591.47;;;9.43;100.00
29569;BME280;16501;51.462;14.346;2024-03-23T10:07:49;98612.88;;;9.58;100.00
29569;BME280;16501;51.462;14.346;2024-03-23T10:10:15;98601.41;;;9.50;100.00
29569;BME280;16501;51.462;14.346;2024-03-23T10:12:45;98601.41;;;9.50;100.00
29569;BME280;16501;51.462;14.346;2024-03-23T10:15:24;98623.03;;;9.55;100.00
29569;BME280;16501;51.462;14.346;2024-03-23T10:17:50;98633.69;;;9.40;100.00
29569;BME280;16501;51.462;14.346;2024-03-23T10:20:23;98663.34;;;9.09;100.00
29569;BME280;16501;51.462;14.346;2024-03-23T10:22:51;98678.56;;;8.59;100.00
29569;BME280;16501;51.462;14.346;2024-03-23T10:25:17;98725.47;;;8.49;100.00
29569;BME280;16501;51.462;14.346;2024-03-23T10:27:43;98718.44;;;8.28;100.00
29569;BME280;16501;51.462;14.346;2024-03-23T10:30:10;98736.78;;;8.08;100.00
29569;BME280;16501;51.462;14.346;2024-03-23T10:32:37;98721.41;;;7.66;100.00
29569;BME280;16501;51.462;14.346;2024-03-23T10:35:15;98743.28;;;7.73;100.00
29569;BME280;16501;51.462;14.346;2024-03-23T10:37:42;98766.59;;;7.50;100.00
29569;BME280;16501;51.462;14.346;2024-03-23T10:40:09;98785.88;;;7.53;100.00
29569;BME280;16501;51.462;14.346;2024-03-23T10:42:35;98796.03;;;7.15;100.00
29569;BME280;16501;51.462;14.346;2024-03-23T10:45:04;98806.81;;;6.72;100.00
29569;BME280;16501;51.462;14.346;2024-03-23T10:47:29;98819.56;;;6.79;100.00
29569;BME280;16501;51.462;14.346;2024-03-23T10:49:54;98807.56;;;6.58;100.00
29569;BME280;16501;51.462;14.346;2024-03-23T10:52:20;98815.53;;;6.20;100.00
29569;BME280;16501;51.462;14.346;2024-03-23T10:54:47;98857.38;;;6.26;100.00
29569;BME280;16501;51.462;14.346;2024-03-23T10:57:15;98858.09;;;6.36;100.00
29569;BME280;16501;51.462;14.346;2024-03-23T10:59:43;98906.28;;;6.42;100.00
29569;BME280;16501;51.462;14.346;2024-03-23T11:02:19;98932.94;;;6.34;100.00
29569;BME280;16501;51.462;14.346;2024-03-23T11:04:44;98952.94;;;6.47;100.00
29569;BME280;16501;51.462;14.346;2024-03-23T11:09:48;98931.97;;;5.98;100.00
29569;BME280;16501;51.462;14.346;2024-03-23T11:14:51;98977.25;;;6.22;100.00
29569;BME280;16501;51.462;14.346;2024-03-23T11:17:21;98981.59;;;6.23;100.00
29569;BME280;16501;51.462;14.346;2024-03-23T11:20:05;99002.59;;;6.25;100.00
29569;BME280;16501;51.462;14.346;2024-03-23T11:22:46;99018.81;;;6.02;100.00
29569;BME280;16501;51.462;14.346;2024-03-23T11:25:20;99033.03;;;6.04;100.00
29569;BME280;16501;51.462;14.346;2024-03-23T11:28:10;99040.13;;;6.05;100.00
29569;BME280;16501;51.462;14.346;2024-03-23T11:30:36;99043.69;;;5.63;100.00
29569;BME280;16501;51.462;14.346;2024-03-23T11:33:03;99052.75;;;5.73;100.00
29569;BME280;16501;51.462;14.346;2024-03-23T11:35:30;99070.94;;;5.40;100.00
29569;BME280;16501;51.462;14.346;2024-03-23T11:40:30;99086.66;;;5.53;100.00
29569;BME280;16501;51.462;14.346;2024-03-23T11:42:58;99095.75;;;5.62;100.00
29569;BME280;16501;51.462;14.346;2024-03-23T11:45:24;99066.66;;;5.02;100.00
29569;BME280;16501;51.462;14.346;2024-03-23T11:50:29;99046.25;;;5.24;100.00
29569;BME280;16501;51.462;14.346;2024-03-23T11:53:19;99062.22;;;5.66;100.00
29569;BME280;16501;51.462;14.346;2024-03-23T11:55:50;99093.75;;;5.54;100.00
29569;BME280;16501;51.462;14.346;2024-03-23T11:58:17;99098.97;;;5.70;100.00
29569;BME280;16501;51.462;14.346;2024-03-23T12:03:17;99109.25;;;5.18;100.00
29569;BME280;16501;51.462;14.346;2024-03-23T12:05:47;99144.78;;;5.23;100.00
29569;BME280;16501;51.462;14.346;2024-03-23T12:08:23;99143.84;;;5.07;100.00
29569;BME280;16501;51.462;14.346;2024-03-23T12:10:52;99155.88;;;5.23;100.00
29569;BME280;16501;51.462;14.346;2024-03-23T12:13:19;99160.03;;;5.18;100.00
29569;BME280;16501;51.462;14.346;2024-03-23T12:15:46;99155.41;;;5.15;100.00
29569;BME280;16501;51.462;14.346;2024-03-23T12:18:11;99171.31;;;5.33;100.00
29569;BME280;16501;51.462;14.346;2024-03-23T12:20:37;99153.69;;;4.90;100.00
29569;BME280;16501;51.462;14.346;2024-03-23T12:23:07;99191.97;;;4.95;100.00
29569;BME280;16501;51.462;14.346;2024-03-23T12:25:32;99191.69;;;5.02;100.00
29569;BME280;16501;51.462;14.346;2024-03-23T12:28:01;99200.28;;;4.86;100.00
29569;BME280;16501;51.462;14.346;2024-03-23T12:30:27;99192.13;;;5.10;100.00
29569;BME280;16501;51.462;14.346;2024-03-23T12:32:52;99190.09;;;4.83;100.00
29569;BME280;16501;51.462;14.346;2024-03-23T12:35:17;99201.66;;;4.72;100.00
29569;BME280;16501;51.462;14.346;2024-03-23T12:37:43;99185.63;;;4.76;100.00
29569;BME280;16501;51.462;14.346;2024-03-23T12:40:09;99196.13;;;4.90;100.00
29569;BME280;16501;51.462;14.346;2024-03-23T12:42:34;99179.47;;;5.00;100.00
29569;BME280;16501;51.462;14.346;2024-03-23T12:44:59;99200.91;;;4.90;100.00
29569;BME280;16501;51.462;14.346;2024-03-23T12:47:24;99192.59;;;4.99;100.00
29569;BME280;16501;51.462;14.346;2024-03-23T12:49:50;99200.66;;;5.16;100.00
29569;BME280;16501;51.462;14.346;2024-03-23T12:52:17;99207.72;;;4.98;100.00
29569;BME280;16501;51.462;14.346;2024-03-23T12:54:42;99208.38;;;5.21;100.00
29569;BME280;16501;51.462;14.346;2024-03-23T12:57:07;99193.53;;;5.15;100.00
29569;BME280;16501;51.462;14.346;2024-03-23T12:59:33;99197.09;;;4.97;100.00
29569;BME280;16501;51.462;14.346;2024-03-23T13:02:00;99179.47;;;4.90;100.00
29569;BME280;16501;51.462;14.346;2024-03-23T13:04:25;99177.47;;;5.00;100.00
29569;BME280;16501;51.462;14.346;2024-03-23T13:06:51;99200.66;;;5.34;100.00
29569;BME280;16501;51.462;14.346;2024-03-23T13:09:16;99211.16;;;5.30;100.00
29569;BME280;16501;51.462;14.346;2024-03-23T13:11:42;99205.28;;;5.37;100.00
29569;BME280;16501;51.462;14.346;2024-03-23T13:14:07;99196.50;;;5.29;100.00
29569;BME280;16501;51.462;14.346;2024-03-23T13:16:32;99228.47;;;5.43;100.00
29569;BME280;16501;51.462;14.346;2024-03-23T13:18:58;99238.97;;;5.58;100.00
29569;BME280;16501;51.462;14.346;2024-03-23T13:21:23;99233.38;;;5.48;100.00
29569;BME280;16501;51.462;14.346;2024-03-23T13:23:48;99244.84;;;5.60;100.00
29569;BME280;16501;51.462;14.346;2024-03-23T13:26:15;99236.19;;;5.39;100.00
29569;BME280;16501;51.462;14.346;2024-03-23T13:28:40;99222.28;;;5.48;100.00
29569;BME280;16501;51.462;14.346;2024-03-23T13:31:06;99201.41;;;5.62;100.00
29569;BME280;16501;51.462;14.346;2024-03-23T13:33:32;99202.78;;;5.76;100.00
29569;BME280;16501;51.462;14.346;2024-03-23T13:35:57;99197.22;;;5.76;100.00
29569;BME280;16501;51.462;14.346;2024-03-23T13:38:23;99158.91;;;5.80;100.00
29569;BME280;16501;51.462;14.346;2024-03-23T13:40:55;99191.03;;;5.91;100.00
29569;BME280;16501;51.462;14.346;2024-03-23T13:43:22;99233.06;;;5.93;100.00
29569;BME280;16501;51.462;14.346;2024-03-23T13:45:49;99248.09;;;5.77;100.00
29569;BME280;16501;51.462;14.346;2024-03-23T13:48:16;99251.47;;;5.53;100.00
29569;BME280;16501;51.462;14.346;2024-03-23T13:50:43;99264.47;;;5.47;100.00
29569;BME280;16501;51.462;14.346;2024-03-23T13:53:08;99284.56;;;5.79;100.00